sensor_id;sensor_type;location;lat;lon;timestamp;P1;durP1;ratioP1;P2;durP2;ratioP2
8260;SDS011;64115;50.170;8.242;2023-08-07T00:00:13;5.00;;;2.20;;
8260;SDS011;64115;50.170;8.242;2023-08-07T00:02:40;4.13;;;1.97;;
8260;SDS011;64115;50.170;8.242;2023-08-07T00:05:08;3.60;;;1.80;;
8260;SDS011;64115;50.170;8.242;2023-08-07T00:07:35;4.77;;;2.73;;
8260;SDS011;64115;50.170;8.242;2023-08-07T00:10:01;3.07;;;1.70;;
8260;SDS011;64115;50.170;8.242;2023-08-07T00:12:30;5.30;;;2.30;;
8260;SDS011;64115;50.170;8.242;2023-08-07T00:14:57;7.83;;;2.13;;
8260;SDS011;64115;50.170;8.242;2023-08-07T00:17:25;4.43;;;2.50;;
8260;SDS011;64115;50.170;8.242;2023-08-07T00:19:52;4.73;;;1.93;;
8260;SDS011;64115;50.170;8.242;2023-08-07T00:22:19;4.77;;;1.80;;
8260;SDS011;64115;50.170;8.242;2023-08-07T00:24:46;2.37;;;1.80;;
8260;SDS011;64115;50.170;8.242;2023-08-07T00:27:13;5.13;;;2.00;;
8260;SDS011;64115;50.170;8.242;2023-08-07T00:29:41;5.27;;;1.83;;
8260;SDS011;64115;50.170;8.242;2023-08-07T00:32:08;5.50;;;2.00;;
8260;SDS011;64115;50.170;8.242;2023-08-07T00:34:37;2.50;;;1.90;;
8260;SDS011;64115;50.170;8.242;2023-08-07T00:37:04;2.40;;;1.70;;
8260;SDS011;64115;50.170;8.242;2023-08-07T00:39:33;4.87;;;1.83;;
8260;SDS011;64115;50.170;8.242;2023-08-07T00:42:00;3.07;;;1.67;;
8260;SDS011;64115;50.170;8.242;2023-08-07T00:44:27;2.97;;;2.07;;
8260;SDS011;64115;50.170;8.242;2023-08-07T00:46:55;2.93;;;1.57;;
8260;SDS011;64115;50.170;8.242;2023-08-07T00:49:22;3.50;;;2.00;;
8260;SDS011;64115;50.170;8.242;2023-08-07T00:51:49;3.50;;;1.70;;
8260;SDS011;64115;50.170;8.242;2023-08-07T00:54:19;3.47;;;1.80;;
8260;SDS011;64115;50.170;8.242;2023-08-07T00:56:46;2.73;;;1.60;;
8260;SDS011;64115;50.170;8.242;2023-08-07T00:59:13;4.37;;;1.57;;
8260;SDS011;64115;50.170;8.242;2023-08-07T01:01:41;6.50;;;1.70;;
8260;SDS011;64115;50.170;8.242;2023-08-07T01:04:09;5.57;;;1.87;;
8260;SDS011;64115;50.170;8.242;2023-08-07T01:06:36;3.97;;;2.13;;
8260;SDS011;64115;50.170;8.242;2023-08-07T01:09:03;5.70;;;2.00;;
8260;SDS011;64115;50.170;8.242;2023-08-07T01:11:32;5.33;;;2.10;;
8260;SDS011;64115;50.170;8.242;2023-08-07T01:14:07;4.00;;;2.10;;
8260;SDS011;64115;50.170;8.242;2023-08-07T01:16:40;3.30;;;1.90;;
8260;SDS011;64115;50.170;8.242;2023-08-07T01:19:14;4.03;;;1.93;;
8260;SDS011;64115;50.170;8.242;2023-08-07T01:21:50;5.33;;;2.00;;
8260;SDS011;64115;50.170;8.242;2023-08-07T01:24:29;4.37;;;2.17;;
8260;SDS011;64115;50.170;8.242;2023-08-07T01:26:56;6.87;;;2.40;;
8260;SDS011;64115;50.170;8.242;2023-08-07T01:29:30;6.97;;;2.70;;
8260;SDS011;64115;50.170;8.242;2023-08-07T01:32:01;4.20;;;2.63;;
8260;SDS011;64115;50.170;8.242;2023-08-07T01:34:34;3.47;;;2.43;;
8260;SDS011;64115;50.170;8.242;2023-08-07T01:37:03;4.70;;;2.53;;
8260;SDS011;64115;50.170;8.242;2023-08-07T01:39:31;5.90;;;2.57;;
8260;SDS011;64115;50.170;8.242;2023-08-07T01:41:59;5.40;;;2.53;;
8260;SDS011;64115;50.170;8.242;2023-08-07T01:44:27;8.13;;;2.63;;
8260;SDS011;64115;50.170;8.242;2023-08-07T01:46:55;3.90;;;2.40;;
8260;SDS011;64115;50.170;8.242;2023-08-07T01:49:21;6.00;;;2.27;;
8260;SDS011;64115;50.170;8.242;2023-08-07T01:51:48;3.83;;;2.20;;
8260;SDS011;64115;50.170;8.242;2023-08-07T01:54:16;4.03;;;2.63;;
8260;SDS011;64115;50.170;8.242;2023-08-07T01:56:43;7.50;;;2.60;;
8260;SDS011;64115;50.170;8.242;2023-08-07T01:59:10;6.80;;;2.50;;
8260;SDS011;64115;50.170;8.242;2023-08-07T02:01:36;4.70;;;2.63;;
8260;SDS011;64115;50.170;8.242;2023-08-07T02:04:03;3.77;;;2.80;;
8260;SDS011;64115;50.170;8.242;2023-08-07T02:06:30;5.00;;;2.70;;
8260;SDS011;64115;50.170;8.242;2023-08-07T02:08:57;7.17;;;2.90;;
8260;SDS011;64115;50.170;8.242;2023-08-07T02:11:25;4.77;;;2.40;;
8260;SDS011;64115;50.170;8.242;2023-08-07T02:13:52;4.13;;;2.40;;
8260;SDS011;64115;50.170;8.242;2023-08-07T02:16:18;7.10;;;2.67;;
8260;SDS011;64115;50.170;8.242;2023-08-07T02:18:45;2.70;;;2.50;;
8260;SDS011;64115;50.170;8.242;2023-08-07T02:21:12;5.97;;;2.60;;
8260;SDS011;64115;50.170;8.242;2023-08-07T02:23:38;5.67;;;2.57;;
8260;SDS011;64115;50.170;8.242;2023-08-07T02:26:06;5.27;;;2.80;;
8260;SDS011;64115;50.170;8.242;2023-08-07T02:28:34;5.40;;;2.67;;
8260;SDS011;64115;50.170;8.242;2023-08-07T02:31:03;4.33;;;2.80;;
8260;SDS011;64115;50.170;8.242;2023-08-07T02:33:30;4.07;;;2.97;;
8260;SDS011;64115;50.170;8.242;2023-08-07T02:35:57;5.43;;;2.90;;
8260;SDS011;64115;50.170;8.242;2023-08-07T02:38:24;4.87;;;2.90;;
8260;SDS011;64115;50.170;8.242;2023-08-07T02:40:51;7.27;;;2.97;;
8260;SDS011;64115;50.170;8.242;2023-08-07T02:43:18;4.77;;;2.60;;
8260;SDS011;64115;50.170;8.242;2023-08-07T02:45:46;8.07;;;3.50;;
8260;SDS011;64115;50.170;8.242;2023-08-07T02:48:12;3.90;;;2.67;;
8260;SDS011;64115;50.170;8.242;2023-08-07T02:50:39;6.23;;;2.87;;
8260;SDS011;64115;50.170;8.242;2023-08-07T02:53:06;2.87;;;2.60;;
8260;SDS011;64115;50.170;8.242;2023-08-07T02:55:33;3.43;;;2.57;;
8260;SDS011;64115;50.170;8.242;2023-08-07T02:57:59;4.80;;;2.90;;
8260;SDS011;64115;50.170;8.242;2023-08-07T03:00:30;4.40;;;2.20;;
8260;SDS011;64115;50.170;8.242;2023-08-07T03:02:58;4.50;;;2.50;;
8260;SDS011;64115;50.170;8.242;2023-08-07T03:05:25;3.27;;;2.73;;
8260;SDS011;64115;50.170;8.242;2023-08-07T03:07:51;4.27;;;2.70;;
8260;SDS011;64115;50.170;8.242;2023-08-07T03:10:18;4.03;;;2.93;;
8260;SDS011;64115;50.170;8.242;2023-08-07T03:12:45;4.57;;;2.80;;
8260;SDS011;64115;50.170;8.242;2023-08-07T03:15:12;5.30;;;2.77;;
8260;SDS011;64115;50.170;8.242;2023-08-07T03:17:39;4.97;;;2.80;;
8260;SDS011;64115;50.170;8.242;2023-08-07T03:20:07;6.10;;;3.20;;
8260;SDS011;64115;50.170;8.242;2023-08-07T03:22:35;5.00;;;3.00;;
8260;SDS011;64115;50.170;8.242;2023-08-07T03:25:02;8.60;;;2.70;;
8260;SDS011;64115;50.170;8.242;2023-08-07T03:27:30;9.70;;;3.20;;
8260;SDS011;64115;50.170;8.242;2023-08-07T03:29:56;5.77;;;3.10;;
8260;SDS011;64115;50.170;8.242;2023-08-07T03:32:23;6.63;;;3.00;;
8260;SDS011;64115;50.170;8.242;2023-08-07T03:34:50;7.00;;;3.20;;
8260;SDS011;64115;50.170;8.242;2023-08-07T03:37:18;5.63;;;2.67;;
8260;SDS011;64115;50.170;8.242;2023-08-07T03:39:45;4.67;;;3.10;;
8260;SDS011;64115;50.170;8.242;2023-08-07T03:42:13;5.93;;;2.90;;
8260;SDS011;64115;50.170;8.242;2023-08-07T03:44:40;8.43;;;3.50;;
8260;SDS011;64115;50.170;8.242;2023-08-07T03:47:07;6.67;;;2.80;;
8260;SDS011;64115;50.170;8.242;2023-08-07T03:49:34;4.40;;;3.20;;
8260;SDS011;64115;50.170;8.242;2023-08-07T03:52:01;5.40;;;2.80;;
8260;SDS011;64115;50.170;8.242;2023-08-07T03:54:29;3.90;;;3.00;;
8260;SDS011;64115;50.170;8.242;2023-08-07T03:56:56;6.17;;;3.10;;
8260;SDS011;64115;50.170;8.242;2023-08-07T03:59:23;4.27;;;2.93;;
8260;SDS011;64115;50.170;8.242;2023-08-07T04:01:49;6.10;;;3.07;;
8260;SDS011;64115;50.170;8.242;2023-08-07T04:04:16;6.43;;;2.87;;
8260;SDS011;64115;50.170;8.242;2023-08-07T04:06:43;5.50;;;2.70;;
8260;SDS011;64115;50.170;8.242;2023-08-07T04:09:10;6.13;;;2.90;;
8260;SDS011;64115;50.170;8.242;2023-08-07T04:11:38;3.03;;;2.73;;
8260;SDS011;64115;50.170;8.242;2023-08-07T04:14:06;5.93;;;2.93;;
8260;SDS011;64115;50.170;8.242;2023-08-07T04:16:34;4.93;;;3.27;;
8260;SDS011;64115;50.170;8.242;2023-08-07T04:19:02;4.90;;;3.00;;
8260;SDS011;64115;50.170;8.242;2023-08-07T04:21:29;5.40;;;2.70;;
8260;SDS011;64115;50.170;8.242;2023-08-07T04:23:56;5.33;;;3.00;;
8260;SDS011;64115;50.170;8.242;2023-08-07T04:26:25;5.43;;;2.97;;
8260;SDS011;64115;50.170;8.242;2023-08-07T04:28:53;4.80;;;3.07;;
8260;SDS011;64115;50.170;8.242;2023-08-07T04:31:21;6.23;;;3.03;;
8260;SDS011;64115;50.170;8.242;2023-08-07T04:33:48;5.40;;;3.10;;
8260;SDS011;64115;50.170;8.242;2023-08-07T04:36:17;4.07;;;3.03;;
8260;SDS011;64115;50.170;8.242;2023-08-07T04:38:46;2.93;;;2.73;;
8260;SDS011;64115;50.170;8.242;2023-08-07T04:41:12;6.60;;;3.00;;
8260;SDS011;64115;50.170;8.242;2023-08-07T04:43:39;4.20;;;2.80;;
8260;SDS011;64115;50.170;8.242;2023-08-07T04:46:09;7.53;;;3.10;;
8260;SDS011;64115;50.170;8.242;2023-08-07T04:48:37;2.87;;;2.50;;
8260;SDS011;64115;50.170;8.242;2023-08-07T04:51:03;6.83;;;2.97;;
8260;SDS011;64115;50.170;8.242;2023-08-07T04:53:30;6.03;;;2.93;;
8260;SDS011;64115;50.170;8.242;2023-08-07T04:55:59;7.33;;;3.17;;
8260;SDS011;64115;50.170;8.242;2023-08-07T04:58:26;6.20;;;3.17;;
8260;SDS011;64115;50.170;8.242;2023-08-07T05:00:54;6.60;;;3.10;;
8260;SDS011;64115;50.170;8.242;2023-08-07T05:03:23;4.47;;;3.10;;
8260;SDS011;64115;50.170;8.242;2023-08-07T05:05:55;6.30;;;3.20;;
8260;SDS011;64115;50.170;8.242;2023-08-07T05:08:24;7.50;;;2.90;;
8260;SDS011;64115;50.170;8.242;2023-08-07T05:10:51;4.53;;;2.93;;
8260;SDS011;64115;50.170;8.242;2023-08-07T05:13:18;4.77;;;2.83;;
8260;SDS011;64115;50.170;8.242;2023-08-07T05:15:46;4.83;;;3.30;;
8260;SDS011;64115;50.170;8.242;2023-08-07T05:18:13;6.00;;;3.00;;
8260;SDS011;64115;50.170;8.242;2023-08-07T05:20:42;6.47;;;3.07;;
8260;SDS011;64115;50.170;8.242;2023-08-07T05:23:09;6.63;;;3.43;;
8260;SDS011;64115;50.170;8.242;2023-08-07T05:25:36;8.70;;;3.50;;
8260;SDS011;64115;50.170;8.242;2023-08-07T05:28:05;5.73;;;3.60;;
8260;SDS011;64115;50.170;8.242;2023-08-07T05:30:32;6.27;;;3.00;;
8260;SDS011;64115;50.170;8.242;2023-08-07T05:32:59;5.20;;;3.27;;
8260;SDS011;64115;50.170;8.242;2023-08-07T05:35:26;5.63;;;3.13;;
8260;SDS011;64115;50.170;8.242;2023-08-07T05:37:54;4.23;;;3.10;;
8260;SDS011;64115;50.170;8.242;2023-08-07T05:40:21;5.30;;;3.17;;
8260;SDS011;64115;50.170;8.242;2023-08-07T05:42:47;8.73;;;3.23;;
8260;SDS011;64115;50.170;8.242;2023-08-07T05:45:14;9.77;;;3.13;;
8260;SDS011;64115;50.170;8.242;2023-08-07T05:47:41;4.07;;;2.97;;
8260;SDS011;64115;50.170;8.242;2023-08-07T05:50:09;4.50;;;2.97;;
8260;SDS011;64115;50.170;8.242;2023-08-07T05:52:36;4.20;;;2.90;;
8260;SDS011;64115;50.170;8.242;2023-08-07T05:55:05;4.73;;;2.53;;
8260;SDS011;64115;50.170;8.242;2023-08-07T05:57:33;2.97;;;2.47;;
8260;SDS011;64115;50.170;8.242;2023-08-07T06:00:00;2.97;;;2.50;;
8260;SDS011;64115;50.170;8.242;2023-08-07T06:02:26;2.93;;;2.40;;
8260;SDS011;64115;50.170;8.242;2023-08-07T06:04:53;5.17;;;2.27;;
8260;SDS011;64115;50.170;8.242;2023-08-07T06:07:20;2.60;;;2.00;;
8260;SDS011;64115;50.170;8.242;2023-08-07T06:09:47;3.63;;;2.07;;
8260;SDS011;64115;50.170;8.242;2023-08-07T06:12:15;3.60;;;2.20;;
8260;SDS011;64115;50.170;8.242;2023-08-07T06:14:42;2.20;;;2.00;;
8260;SDS011;64115;50.170;8.242;2023-08-07T06:17:09;3.43;;;2.00;;
8260;SDS011;64115;50.170;8.242;2023-08-07T06:19:35;1.90;;;1.80;;
8260;SDS011;64115;50.170;8.242;2023-08-07T06:22:02;3.90;;;2.30;;
8260;SDS011;64115;50.170;8.242;2023-08-07T06:24:29;2.77;;;2.43;;
8260;SDS011;64115;50.170;8.242;2023-08-07T06:26:56;3.17;;;2.17;;
8260;SDS011;64115;50.170;8.242;2023-08-07T06:29:24;3.93;;;2.27;;
8260;SDS011;64115;50.170;8.242;2023-08-07T06:31:51;2.57;;;2.37;;
8260;SDS011;64115;50.170;8.242;2023-08-07T06:34:18;4.57;;;2.40;;
8260;SDS011;64115;50.170;8.242;2023-08-07T06:36:45;7.67;;;2.70;;
8260;SDS011;64115;50.170;8.242;2023-08-07T06:39:11;3.53;;;2.40;;
8260;SDS011;64115;50.170;8.242;2023-08-07T06:41:38;4.53;;;2.40;;
8260;SDS011;64115;50.170;8.242;2023-08-07T06:44:05;3.43;;;2.77;;
8260;SDS011;64115;50.170;8.242;2023-08-07T06:46:33;4.13;;;2.60;;
8260;SDS011;64115;50.170;8.242;2023-08-07T06:49:00;6.47;;;2.70;;
8260;SDS011;64115;50.170;8.242;2023-08-07T06:51:27;7.83;;;3.03;;
8260;SDS011;64115;50.170;8.242;2023-08-07T06:53:53;4.07;;;2.90;;
8260;SDS011;64115;50.170;8.242;2023-08-07T06:56:20;3.90;;;2.50;;
8260;SDS011;64115;50.170;8.242;2023-08-07T06:58:47;2.97;;;2.50;;
8260;SDS011;64115;50.170;8.242;2023-08-07T07:01:14;5.17;;;2.60;;
8260;SDS011;64115;50.170;8.242;2023-08-07T07:03:42;3.77;;;2.40;;
8260;SDS011;64115;50.170;8.242;2023-08-07T07:06:10;4.20;;;2.80;;
8260;SDS011;64115;50.170;8.242;2023-08-07T07:08:37;4.37;;;2.70;;
8260;SDS011;64115;50.170;8.242;2023-08-07T07:11:04;3.43;;;2.53;;
8260;SDS011;64115;50.170;8.242;2023-08-07T07:13:31;3.83;;;2.50;;
8260;SDS011;64115;50.170;8.242;2023-08-07T07:15:57;4.23;;;2.53;;
8260;SDS011;64115;50.170;8.242;2023-08-07T07:18:24;4.47;;;2.40;;
8260;SDS011;64115;50.170;8.242;2023-08-07T07:20:57;6.47;;;2.33;;
8260;SDS011;64115;50.170;8.242;2023-08-07T07:23:25;4.33;;;2.20;;
8260;SDS011;64115;50.170;8.242;2023-08-07T07:25:53;3.90;;;2.30;;
8260;SDS011;64115;50.170;8.242;2023-08-07T07:28:19;5.63;;;2.43;;
8260;SDS011;64115;50.170;8.242;2023-08-07T07:30:47;2.33;;;2.13;;
8260;SDS011;64115;50.170;8.242;2023-08-07T07:33:13;5.00;;;2.63;;
8260;SDS011;64115;50.170;8.242;2023-08-07T07:35:40;3.20;;;2.10;;
8260;SDS011;64115;50.170;8.242;2023-08-07T07:38:10;4.37;;;2.70;;
8260;SDS011;64115;50.170;8.242;2023-08-07T07:40:38;3.50;;;2.20;;
8260;SDS011;64115;50.170;8.242;2023-08-07T07:43:05;3.57;;;2.50;;
8260;SDS011;64115;50.170;8.242;2023-08-07T07:45:32;3.23;;;2.57;;
8260;SDS011;64115;50.170;8.242;2023-08-07T07:48:00;3.90;;;2.10;;
8260;SDS011;64115;50.170;8.242;2023-08-07T07:50:29;3.30;;;2.10;;
8260;SDS011;64115;50.170;8.242;2023-08-07T07:52:56;3.03;;;2.27;;
8260;SDS011;64115;50.170;8.242;2023-08-07T07:55:25;10.43;;;2.70;;
8260;SDS011;64115;50.170;8.242;2023-08-07T07:57:52;5.93;;;2.50;;
8260;SDS011;64115;50.170;8.242;2023-08-07T08:00:20;3.17;;;2.03;;
8260;SDS011;64115;50.170;8.242;2023-08-07T08:02:48;2.40;;;2.20;;
8260;SDS011;64115;50.170;8.242;2023-08-07T08:05:16;4.43;;;1.90;;
8260;SDS011;64115;50.170;8.242;2023-08-07T08:07:43;3.60;;;2.33;;
8260;SDS011;64115;50.170;8.242;2023-08-07T08:10:09;5.80;;;2.70;;
8260;SDS011;64115;50.170;8.242;2023-08-07T08:13:47;2.77;;;1.90;;
8260;SDS011;64115;50.170;8.242;2023-08-07T08:16:14;3.50;;;2.00;;
8260;SDS011;64115;50.170;8.242;2023-08-07T08:18:41;3.77;;;2.13;;
8260;SDS011;64115;50.170;8.242;2023-08-07T08:21:08;2.37;;;2.23;;
8260;SDS011;64115;50.170;8.242;2023-08-07T08:23:35;3.20;;;2.20;;
8260;SDS011;64115;50.170;8.242;2023-08-07T08:26:01;5.77;;;2.00;;
8260;SDS011;64115;50.170;8.242;2023-08-07T08:28:28;3.50;;;2.23;;
8260;SDS011;64115;50.170;8.242;2023-08-07T08:30:56;3.07;;;2.37;;
8260;SDS011;64115;50.170;8.242;2023-08-07T08:33:23;2.20;;;2.00;;
8260;SDS011;64115;50.170;8.242;2023-08-07T08:35:50;3.07;;;2.30;;
8260;SDS011;64115;50.170;8.242;2023-08-07T08:38:17;2.30;;;2.03;;
8260;SDS011;64115;50.170;8.242;2023-08-07T08:40:45;4.93;;;2.37;;
8260;SDS011;64115;50.170;8.242;2023-08-07T08:43:12;2.77;;;2.10;;
8260;SDS011;64115;50.170;8.242;2023-08-07T08:45:40;2.33;;;1.87;;
8260;SDS011;64115;50.170;8.242;2023-08-07T08:48:12;2.03;;;1.83;;
8260;SDS011;64115;50.170;8.242;2023-08-07T08:50:46;2.93;;;2.20;;
8260;SDS011;64115;50.170;8.242;2023-08-07T08:53:15;1.97;;;1.70;;
8260;SDS011;64115;50.170;8.242;2023-08-07T08:55:42;4.60;;;2.40;;
8260;SDS011;64115;50.170;8.242;2023-08-07T08:58:12;2.30;;;2.10;;
8260;SDS011;64115;50.170;8.242;2023-08-07T09:00:41;3.47;;;2.10;;
8260;SDS011;64115;50.170;8.242;2023-08-07T09:03:08;3.00;;;2.23;;
8260;SDS011;64115;50.170;8.242;2023-08-07T09:05:36;3.87;;;2.20;;
8260;SDS011;64115;50.170;8.242;2023-08-07T09:08:03;2.80;;;2.20;;
8260;SDS011;64115;50.170;8.242;2023-08-07T09:10:31;2.90;;;2.30;;
8260;SDS011;64115;50.170;8.242;2023-08-07T09:13:00;4.63;;;2.37;;
8260;SDS011;64115;50.170;8.242;2023-08-07T09:15:28;1.97;;;1.80;;
8260;SDS011;64115;50.170;8.242;2023-08-07T09:17:57;2.53;;;2.30;;
8260;SDS011;64115;50.170;8.242;2023-08-07T09:20:24;2.57;;;1.90;;
8260;SDS011;64115;50.170;8.242;2023-08-07T09:22:54;2.33;;;2.10;;
8260;SDS011;64115;50.170;8.242;2023-08-07T09:25:27;2.13;;;1.97;;
8260;SDS011;64115;50.170;8.242;2023-08-07T09:27:56;2.73;;;2.27;;
8260;SDS011;64115;50.170;8.242;2023-08-07T09:30:25;2.20;;;2.00;;
8260;SDS011;64115;50.170;8.242;2023-08-07T09:32:54;5.60;;;1.87;;
8260;SDS011;64115;50.170;8.242;2023-08-07T09:35:22;2.70;;;2.30;;
8260;SDS011;64115;50.170;8.242;2023-08-07T09:37:49;2.77;;;2.00;;
8260;SDS011;64115;50.170;8.242;2023-08-07T09:40:18;2.47;;;1.90;;
8260;SDS011;64115;50.170;8.242;2023-08-07T09:42:47;2.43;;;2.00;;
8260;SDS011;64115;50.170;8.242;2023-08-07T09:45:20;2.10;;;1.90;;
8260;SDS011;64115;50.170;8.242;2023-08-07T09:47:56;1.90;;;1.80;;
8260;SDS011;64115;50.170;8.242;2023-08-07T09:50:24;2.23;;;2.00;;
8260;SDS011;64115;50.170;8.242;2023-08-07T09:52:52;3.63;;;2.37;;
8260;SDS011;64115;50.170;8.242;2023-08-07T09:55:20;1.67;;;1.57;;
8260;SDS011;64115;50.170;8.242;2023-08-07T09:57:47;2.27;;;1.90;;
8260;SDS011;64115;50.170;8.242;2023-08-07T10:00:15;1.90;;;1.70;;
8260;SDS011;64115;50.170;8.242;2023-08-07T10:02:44;3.40;;;1.80;;
8260;SDS011;64115;50.170;8.242;2023-08-07T10:05:13;1.80;;;1.70;;
8260;SDS011;64115;50.170;8.242;2023-08-07T10:07:40;2.07;;;1.83;;
8260;SDS011;64115;50.170;8.242;2023-08-07T10:10:08;1.80;;;1.70;;
8260;SDS011;64115;50.170;8.242;2023-08-07T10:12:37;2.33;;;1.70;;
8260;SDS011;64115;50.170;8.242;2023-08-07T10:15:05;2.30;;;2.13;;
8260;SDS011;64115;50.170;8.242;2023-08-07T10:17:33;2.93;;;1.70;;
8260;SDS011;64115;50.170;8.242;2023-08-07T10:20:00;3.20;;;2.10;;
8260;SDS011;64115;50.170;8.242;2023-08-07T10:22:29;2.73;;;1.90;;
8260;SDS011;64115;50.170;8.242;2023-08-07T10:24:57;4.27;;;2.20;;
8260;SDS011;64115;50.170;8.242;2023-08-07T10:27:27;4.37;;;2.27;;
8260;SDS011;64115;50.170;8.242;2023-08-07T10:29:58;4.63;;;2.40;;
8260;SDS011;64115;50.170;8.242;2023-08-07T10:32:27;4.93;;;2.70;;
8260;SDS011;64115;50.170;8.242;2023-08-07T10:34:55;3.67;;;2.20;;
8260;SDS011;64115;50.170;8.242;2023-08-07T10:37:40;3.57;;;2.17;;
8260;SDS011;64115;50.170;8.242;2023-08-07T10:40:08;3.07;;;2.20;;
8260;SDS011;64115;50.170;8.242;2023-08-07T10:42:52;5.93;;;2.10;;
8260;SDS011;64115;50.170;8.242;2023-08-07T10:45:25;3.33;;;2.00;;
8260;SDS011;64115;50.170;8.242;2023-08-07T10:47:57;3.17;;;2.00;;
8260;SDS011;64115;50.170;8.242;2023-08-07T10:50:28;2.40;;;2.20;;
8260;SDS011;64115;50.170;8.242;2023-08-07T10:52:55;2.57;;;2.07;;
8260;SDS011;64115;50.170;8.242;2023-08-07T10:55:22;2.50;;;2.20;;
8260;SDS011;64115;50.170;8.242;2023-08-07T10:57:50;3.67;;;2.40;;
8260;SDS011;64115;50.170;8.242;2023-08-07T11:00:17;4.57;;;1.90;;
8260;SDS011;64115;50.170;8.242;2023-08-07T11:02:49;3.97;;;2.03;;
8260;SDS011;64115;50.170;8.242;2023-08-07T11:05:17;4.27;;;2.30;;
8260;SDS011;64115;50.170;8.242;2023-08-07T11:07:44;3.53;;;2.00;;
8260;SDS011;64115;50.170;8.242;2023-08-07T11:10:12;2.83;;;2.00;;
8260;SDS011;64115;50.170;8.242;2023-08-07T11:12:40;3.10;;;2.33;;
8260;SDS011;64115;50.170;8.242;2023-08-07T11:15:11;5.03;;;2.27;;
8260;SDS011;64115;50.170;8.242;2023-08-07T11:17:38;3.73;;;2.20;;
8260;SDS011;64115;50.170;8.242;2023-08-07T11:20:12;2.77;;;1.93;;
8260;SDS011;64115;50.170;8.242;2023-08-07T11:22:40;3.30;;;2.13;;
8260;SDS011;64115;50.170;8.242;2023-08-07T11:25:08;3.50;;;2.30;;
8260;SDS011;64115;50.170;8.242;2023-08-07T11:27:38;3.87;;;2.03;;
8260;SDS011;64115;50.170;8.242;2023-08-07T11:30:06;3.77;;;2.00;;
8260;SDS011;64115;50.170;8.242;2023-08-07T11:32:37;2.77;;;1.60;;
8260;SDS011;64115;50.170;8.242;2023-08-07T11:35:05;2.37;;;1.93;;
8260;SDS011;64115;50.170;8.242;2023-08-07T11:37:34;4.47;;;2.30;;
8260;SDS011;64115;50.170;8.242;2023-08-07T11:40:01;2.20;;;2.00;;
8260;SDS011;64115;50.170;8.242;2023-08-07T11:42:28;4.60;;;2.10;;
8260;SDS011;64115;50.170;8.242;2023-08-07T11:44:55;3.97;;;1.90;;
8260;SDS011;64115;50.170;8.242;2023-08-07T11:47:22;3.63;;;1.73;;
8260;SDS011;64115;50.170;8.242;2023-08-07T11:49:49;2.43;;;1.90;;
8260;SDS011;64115;50.170;8.242;2023-08-07T11:52:18;3.87;;;2.40;;
8260;SDS011;64115;50.170;8.242;2023-08-07T11:54:48;2.47;;;2.07;;
8260;SDS011;64115;50.170;8.242;2023-08-07T11:57:15;2.23;;;1.87;;
8260;SDS011;64115;50.170;8.242;2023-08-07T11:59:46;2.47;;;1.80;;
8260;SDS011;64115;50.170;8.242;2023-08-07T12:02:14;4.50;;;2.10;;
8260;SDS011;64115;50.170;8.242;2023-08-07T12:04:41;7.17;;;2.30;;
8260;SDS011;64115;50.170;8.242;2023-08-07T12:07:08;2.57;;;1.90;;
8260;SDS011;64115;50.170;8.242;2023-08-07T12:09:36;3.53;;;2.13;;
8260;SDS011;64115;50.170;8.242;2023-08-07T12:12:05;3.67;;;2.13;;
8260;SDS011;64115;50.170;8.242;2023-08-07T12:14:33;7.63;;;1.97;;
8260;SDS011;64115;50.170;8.242;2023-08-07T12:17:01;4.23;;;1.93;;
8260;SDS011;64115;50.170;8.242;2023-08-07T12:19:38;3.03;;;1.80;;
8260;SDS011;64115;50.170;8.242;2023-08-07T12:22:06;4.37;;;2.23;;
8260;SDS011;64115;50.170;8.242;2023-08-07T12:24:34;4.50;;;1.90;;
8260;SDS011;64115;50.170;8.242;2023-08-07T12:27:05;2.53;;;1.80;;
8260;SDS011;64115;50.170;8.242;2023-08-07T12:29:32;2.50;;;1.80;;
8260;SDS011;64115;50.170;8.242;2023-08-07T12:32:00;2.50;;;2.10;;
8260;SDS011;64115;50.170;8.242;2023-08-07T12:34:27;4.60;;;1.83;;
8260;SDS011;64115;50.170;8.242;2023-08-07T12:36:54;2.33;;;2.00;;
8260;SDS011;64115;50.170;8.242;2023-08-07T12:39:21;3.40;;;2.10;;
8260;SDS011;64115;50.170;8.242;2023-08-07T12:41:48;4.80;;;1.90;;
8260;SDS011;64115;50.170;8.242;2023-08-07T12:44:16;3.60;;;1.60;;
8260;SDS011;64115;50.170;8.242;2023-08-07T12:46:43;2.83;;;2.03;;
8260;SDS011;64115;50.170;8.242;2023-08-07T12:49:10;3.17;;;1.97;;
8260;SDS011;64115;50.170;8.242;2023-08-07T12:51:36;2.87;;;2.10;;
8260;SDS011;64115;50.170;8.242;2023-08-07T12:54:03;2.23;;;2.00;;
8260;SDS011;64115;50.170;8.242;2023-08-07T12:56:30;2.80;;;1.70;;
8260;SDS011;64115;50.170;8.242;2023-08-07T12:58:57;3.70;;;2.50;;
8260;SDS011;64115;50.170;8.242;2023-08-07T13:01:25;4.03;;;1.93;;
8260;SDS011;64115;50.170;8.242;2023-08-07T13:03:52;2.30;;;1.90;;
8260;SDS011;64115;50.170;8.242;2023-08-07T13:06:19;2.90;;;1.93;;
8260;SDS011;64115;50.170;8.242;2023-08-07T13:08:45;3.43;;;2.20;;
8260;SDS011;64115;50.170;8.242;2023-08-07T13:11:12;3.17;;;1.80;;
8260;SDS011;64115;50.170;8.242;2023-08-07T13:13:39;4.13;;;1.80;;
8260;SDS011;64115;50.170;8.242;2023-08-07T13:16:06;3.00;;;1.80;;
8260;SDS011;64115;50.170;8.242;2023-08-07T13:18:34;3.60;;;1.97;;
8260;SDS011;64115;50.170;8.242;2023-08-07T13:21:01;3.67;;;2.03;;
8260;SDS011;64115;50.170;8.242;2023-08-07T13:23:27;3.03;;;2.20;;
8260;SDS011;64115;50.170;8.242;2023-08-07T13:25:54;2.70;;;1.73;;
8260;SDS011;64115;50.170;8.242;2023-08-07T13:28:21;3.00;;;1.80;;
8260;SDS011;64115;50.170;8.242;2023-08-07T13:30:48;5.53;;;2.20;;
8260;SDS011;64115;50.170;8.242;2023-08-07T13:33:16;4.83;;;1.57;;
8260;SDS011;64115;50.170;8.242;2023-08-07T13:35:44;2.93;;;1.57;;
8260;SDS011;64115;50.170;8.242;2023-08-07T13:38:10;3.37;;;1.70;;
8260;SDS011;64115;50.170;8.242;2023-08-07T13:40:38;2.23;;;1.70;;
8260;SDS011;64115;50.170;8.242;2023-08-07T13:43:05;2.93;;;1.90;;
8260;SDS011;64115;50.170;8.242;2023-08-07T13:45:34;6.00;;;1.80;;
8260;SDS011;64115;50.170;8.242;2023-08-07T13:48:01;2.60;;;1.70;;
8260;SDS011;64115;50.170;8.242;2023-08-07T13:50:28;4.73;;;1.80;;
8260;SDS011;64115;50.170;8.242;2023-08-07T13:52:56;2.90;;;1.70;;
8260;SDS011;64115;50.170;8.242;2023-08-07T13:55:23;2.47;;;1.80;;
8260;SDS011;64115;50.170;8.242;2023-08-07T13:57:50;2.50;;;1.90;;
8260;SDS011;64115;50.170;8.242;2023-08-07T14:00:17;2.37;;;1.60;;
8260;SDS011;64115;50.170;8.242;2023-08-07T14:02:44;2.17;;;1.90;;
8260;SDS011;64115;50.170;8.242;2023-08-07T14:05:11;2.57;;;1.80;;
8260;SDS011;64115;50.170;8.242;2023-08-07T14:07:38;2.03;;;1.73;;
8260;SDS011;64115;50.170;8.242;2023-08-07T14:10:06;2.03;;;1.70;;
8260;SDS011;64115;50.170;8.242;2023-08-07T14:12:33;2.83;;;1.90;;
8260;SDS011;64115;50.170;8.242;2023-08-07T14:15:03;2.63;;;1.93;;
8260;SDS011;64115;50.170;8.242;2023-08-07T14:17:32;3.50;;;2.10;;
8260;SDS011;64115;50.170;8.242;2023-08-07T14:19:59;1.97;;;1.77;;
8260;SDS011;64115;50.170;8.242;2023-08-07T14:22:25;2.20;;;1.97;;
8260;SDS011;64115;50.170;8.242;2023-08-07T14:24:52;5.43;;;1.90;;
8260;SDS011;64115;50.170;8.242;2023-08-07T14:27:20;4.00;;;1.87;;
8260;SDS011;64115;50.170;8.242;2023-08-07T14:29:47;2.93;;;2.10;;
8260;SDS011;64115;50.170;8.242;2023-08-07T14:32:14;4.03;;;2.40;;
8260;SDS011;64115;50.170;8.242;2023-08-07T14:34:40;3.07;;;1.90;;
8260;SDS011;64115;50.170;8.242;2023-08-07T14:37:07;2.23;;;1.90;;
8260;SDS011;64115;50.170;8.242;2023-08-07T14:39:34;2.07;;;1.70;;
8260;SDS011;64115;50.170;8.242;2023-08-07T14:42:01;2.90;;;1.80;;
8260;SDS011;64115;50.170;8.242;2023-08-07T14:44:29;4.53;;;1.87;;
8260;SDS011;64115;50.170;8.242;2023-08-07T14:46:56;2.87;;;1.97;;
8260;SDS011;64115;50.170;8.242;2023-08-07T14:49:23;3.83;;;2.10;;
8260;SDS011;64115;50.170;8.242;2023-08-07T14:51:49;5.27;;;2.17;;
8260;SDS011;64115;50.170;8.242;2023-08-07T14:54:16;1.73;;;1.63;;
8260;SDS011;64115;50.170;8.242;2023-08-07T14:56:43;3.17;;;1.70;;
8260;SDS011;64115;50.170;8.242;2023-08-07T14:59:10;2.10;;;1.90;;
8260;SDS011;64115;50.170;8.242;2023-08-07T15:01:38;3.80;;;2.00;;
8260;SDS011;64115;50.170;8.242;2023-08-07T15:04:04;2.17;;;1.87;;